Time;durP1;ratioP1;P1;durP2;ratioP2;P2;SDS_P1;SDS_P2;PMS_P1;PMS_P2;Temp;Humidity;BMP_temperature;BMP_pressure;BME280_temperature;BME280_humidity;BME280_pressure;Samples;Min_cycle;Max_cycle;Signal;HPM_P1;HPM_P2
2020/12/18 00:02:26;;;;;;;28.40;25.98;;;;;;;;;;5053356;28;20575;-78
2020/12/18 00:04:53;;;;;;;26.67;24.77;;;;;;;;;;5053160;28;20651;-78
2020/12/18 00:07:20;;;;;;;26.25;24.27;;;;;;;;;;5053379;28;20198;-77
2020/12/18 00:09:47;;;;;;;25.73;23.92;;;;;;;;;;5053301;28;20197;-78
2020/12/18 00:12:14;;;;;;;27.42;25.25;;;;;;;;;;5053360;28;20194;-78
2020/12/18 00:14:42;;;;;;;27.70;25.70;;;;;;;;;;5053275;28;20208;-78
2020/12/18 00:17:09;;;;;;;26.70;24.80;;;;;;;;;;5053469;28;20202;-78
2020/12/18 00:19:36;;;;;;;27.95;25.73;;;;;;;;;;5053273;28;20194;-78
2020/12/18 00:22:03;;;;;;;26.75;24.80;;;;;;;;;;5052917;28;20200;-78
2020/12/18 00:24:30;;;;;;;27.42;25.13;;;;;;;;;;5053101;28;20190;-79
2020/12/18 00:26:57;;;;;;;26.63;24.63;;;;;;;;;;5053705;28;20300;-78
2020/12/18 00:29:23;;;;;;;25.67;24.00;;;;;;;;;;5053007;28;20197;-78
2020/12/18 00:31:51;;;;;;;26.05;24.25;;;;;;;;;;5052872;28;20194;-78
2020/12/18 00:34:19;;;;;;;26.15;24.15;;;;;;;;;;5053048;28;20206;-78
2020/12/18 00:36:50;;;;;;;25.80;24.10;;;;;;;;;;5053292;28;20193;-78
2020/12/18 00:39:17;;;;;;;26.50;24.60;;;;;;;;;;5053447;28;20189;-78
2020/12/18 00:41:43;;;;;;;26.50;24.73;;;;;;;;;;5052796;28;20556;-78
2020/12/18 00:44:10;;;;;;;25.95;24.10;;;;;;;;;;5054011;28;20221;-78
2020/12/18 00:46:37;;;;;;;27.13;25.05;;;;;;;;;;5056745;28;20197;-79
2020/12/18 00:49:05;;;;;;;26.95;25.15;;;;;;;;;;5056709;28;20201;-79
2020/12/18 00:51:32;;;;;;;26.80;25.10;;;;;;;;;;5056689;28;20243;-78
2020/12/18 00:53:59;;;;;;;25.92;24.13;;;;;;;;;;5056377;28;20663;-78
2020/12/18 00:56:25;;;;;;;27.10;24.90;;;;;;;;;;5056259;28;20640;-78
2020/12/18 00:58:52;;;;;;;26.50;24.70;;;;;;;;;;5055863;28;20663;-78
2020/12/18 01:01:19;;;;;;;26.05;24.20;;;;;;;;;;5056189;28;20224;-78
2020/12/18 01:03:46;;;;;;;26.13;24.42;;;;;;;;;;5056044;28;20228;-78
2020/12/18 01:06:14;;;;;;;27.35;25.35;;;;;;;;;;5056069;28;20575;-78
2020/12/18 01:08:41;;;;;;;26.73;24.92;;;;;;;;;;5056473;28;20201;-78
2020/12/18 01:11:08;;;;;;;26.85;24.70;;;;;;;;;;5056339;28;20196;-78
2020/12/18 01:13:35;;;;;;;27.13;24.67;;;;;;;;;;5057029;28;20636;-78
2020/12/18 01:16:02;;;;;;;25.70;24.10;;;;;;;;;;5056223;28;20264;-78
2020/12/18 01:18:29;;;;;;;26.67;24.80;;;;;;;;;;5057262;28;20262;-78
2020/12/18 01:20:59;;;;;;;25.38;23.70;;;;;;;;;;5055031;28;20228;-77
2020/12/18 01:23:27;;;;;;;26.30;24.00;;;;;;;;;;5056071;28;20251;-78
2020/12/18 01:25:54;;;;;;;26.85;25.05;;;;;;;;;;5056115;28;20193;-78
2020/12/18 01:28:21;;;;;;;25.38;23.70;;;;;;;;;;5054503;28;20204;-78
2020/12/18 01:30:48;;;;;;;26.42;24.52;;;;;;;;;;5054444;28;20256;-78
2020/12/18 01:33:15;;;;;;;25.35;23.65;;;;;;;;;;5055626;28;20205;-78
2020/12/18 01:35:42;;;;;;;25.73;23.92;;;;;;;;;;5055690;28;20216;-78
2020/12/18 01:38:09;;;;;;;25.77;23.85;;;;;;;;;;5055570;28;20203;-79
2020/12/18 01:40:36;;;;;;;26.42;24.73;;;;;;;;;;5054561;28;20295;-78
2020/12/18 01:43:04;;;;;;;25.52;23.83;;;;;;;;;;5055573;28;20195;-78
2020/12/18 01:45:30;;;;;;;26.40;24.45;;;;;;;;;;5055422;28;20189;-78
2020/12/18 01:47:58;;;;;;;25.58;24.08;;;;;;;;;;5055308;28;20674;-78
2020/12/18 01:50:25;;;;;;;25.52;23.77;;;;;;;;;;5055405;28;20199;-78
2020/12/18 01:52:52;;;;;;;27.00;24.42;;;;;;;;;;5055478;28;20269;-78
2020/12/18 01:55:19;;;;;;;25.23;23.80;;;;;;;;;;5055604;28;20276;-79
2020/12/18 01:57:47;;;;;;;27.08;24.58;;;;;;;;;;5055774;28;20194;-79
2020/12/18 02:00:14;;;;;;;24.75;23.05;;;;;;;;;;5055060;28;20212;-78
2020/12/18 02:02:41;;;;;;;26.67;24.20;;;;;;;;;;5055072;28;20235;-78
2020/12/18 02:05:07;;;;;;;24.60;23.00;;;;;;;;;;5055109;28;20574;-78
2020/12/18 02:07:37;;;;;;;25.63;23.77;;;;;;;;;;5056057;28;20581;-78
2020/12/18 02:10:04;;;;;;;24.60;22.95;;;;;;;;;;5055363;28;20200;-78
2020/12/18 02:12:31;;;;;;;25.65;23.85;;;;;;;;;;5054923;28;20209;-78
2020/12/18 02:14:59;;;;;;;25.48;23.35;;;;;;;;;;5053982;28;20226;-78
2020/12/18 02:17:25;;;;;;;24.70;23.00;;;;;;;;;;5054962;28;20187;-79
2020/12/18 02:19:53;;;;;;;24.27;22.50;;;;;;;;;;5054539;28;20567;-78
2020/12/18 02:22:21;;;;;;;25.00;23.30;;;;;;;;;;5054988;28;20251;-78
2020/12/18 02:24:50;;;;;;;24.25;22.70;;;;;;;;;;5054933;28;20208;-78
2020/12/18 02:27:19;;;;;;;25.60;23.80;;;;;;;;;;5054580;28;20195;-78
2020/12/18 02:29:46;;;;;;;24.45;22.70;;;;;;;;;;5054691;28;20655;-78
2020/12/18 02:32:12;;;;;;;24.13;22.40;;;;;;;;;;5054569;28;20655;-78
2020/12/18 02:34:40;;;;;;;25.58;23.88;;;;;;;;;;5053277;28;20567;-78
2020/12/18 02:37:07;;;;;;;25.45;23.85;;;;;;;;;;5054491;28;20189;-78
2020/12/18 02:39:34;;;;;;;25.25;23.50;;;;;;;;;;5054447;28;20675;-78
2020/12/18 02:42:01;;;;;;;24.65;23.05;;;;;;;;;;5054619;28;20300;-78
2020/12/18 02:44:29;;;;;;;25.25;23.35;;;;;;;;;;5054499;28;20229;-78
2020/12/18 02:46:56;;;;;;;25.27;23.38;;;;;;;;;;5055154;28;20207;-78
2020/12/18 02:49:23;;;;;;;24.30;22.70;;;;;;;;;;5054560;28;20281;-78
2020/12/18 02:51:50;;;;;;;26.45;24.67;;;;;;;;;;5054604;28;20206;-78
2020/12/18 02:54:17;;;;;;;24.90;23.10;;;;;;;;;;5054179;28;20198;-78
2020/12/18 02:56:43;;;;;;;27.08;24.90;;;;;;;;;;5054092;28;20190;-78
2020/12/18 02:59:10;;;;;;;24.10;22.42;;;;;;;;;;5054311;28;20246;-78
2020/12/18 03:01:38;;;;;;;24.20;22.60;;;;;;;;;;5053874;28;20391;-77
2020/12/18 03:04:05;;;;;;;25.77;23.80;;;;;;;;;;5053976;28;20214;-78
2020/12/18 03:06:32;;;;;;;25.48;23.65;;;;;;;;;;5053284;28;20194;-78
2020/12/18 03:08:59;;;;;;;24.55;22.80;;;;;;;;;;5053890;28;20206;-78
2020/12/18 03:11:25;;;;;;;24.83;23.13;;;;;;;;;;5054212;28;20238;-78
2020/12/18 03:13:52;;;;;;;25.73;23.90;;;;;;;;;;5054903;28;20197;-78
2020/12/18 03:16:19;;;;;;;25.80;23.90;;;;;;;;;;5053777;28;20656;-77
2020/12/18 03:18:47;;;;;;;25.52;23.65;;;;;;;;;;5053750;28;20584;-78
2020/12/18 03:21:14;;;;;;;25.70;23.63;;;;;;;;;;5053395;28;20216;-78
2020/12/18 03:23:41;;;;;;;25.42;23.17;;;;;;;;;;5053903;28;20194;-78
2020/12/18 03:26:08;;;;;;;24.23;22.73;;;;;;;;;;5053882;28;20195;-78
2020/12/18 03:28:34;;;;;;;24.45;22.80;;;;;;;;;;5052385;28;20197;-78
2020/12/18 03:31:01;;;;;;;24.33;22.77;;;;;;;;;;5053690;28;20206;-78
2020/12/18 03:33:28;;;;;;;25.00;23.40;;;;;;;;;;5053470;28;20559;-78
2020/12/18 03:35:56;;;;;;;25.05;23.13;;;;;;;;;;5053557;28;20185;-78
2020/12/18 03:38:23;;;;;;;25.92;23.73;;;;;;;;;;5053701;28;20550;-78
2020/12/18 03:40:50;;;;;;;24.15;22.45;;;;;;;;;;5053508;28;20220;-78
2020/12/18 03:43:17;;;;;;;24.63;22.85;;;;;;;;;;5053721;28;20190;-78
2020/12/18 03:45:44;;;;;;;24.45;22.95;;;;;;;;;;5053561;28;20205;-78
2020/12/18 03:48:10;;;;;;;24.73;23.02;;;;;;;;;;5053747;28;20188;-78
2020/12/18 03:50:37;;;;;;;24.95;23.25;;;;;;;;;;5053380;28;20248;-78
2020/12/18 03:53:05;;;;;;;25.25;23.50;;;;;;;;;;5054002;28;20218;-78
2020/12/18 03:55:32;;;;;;;24.50;22.90;;;;;;;;;;5053629;28;20201;-78
2020/12/18 03:57:58;;;;;;;26.52;24.55;;;;;;;;;;5053360;28;20188;-78
2020/12/18 04:00:25;;;;;;;26.13;24.30;;;;;;;;;;5053086;28;20212;-78
2020/12/18 04:02:52;;;;;;;25.70;24.00;;;;;;;;;;5053134;28;20234;-78
2020/12/18 04:05:19;;;;;;;25.60;23.75;;;;;;;;;;5053450;28;20289;-78
2020/12/18 04:07:46;;;;;;;25.60;23.77;;;;;;;;;;5053262;28;20634;-78
2020/12/18 04:10:13;;;;;;;25.23;23.65;;;;;;;;;;5053227;28;20189;-78
2020/12/18 04:12:40;;;;;;;25.35;23.13;;;;;;;;;;5053817;28;20540;-78
2020/12/18 04:15:07;;;;;;;24.48;22.92;;;;;;;;;;5053431;28;20622;-78
2020/12/18 04:17:34;;;;;;;25.10;23.20;;;;;;;;;;5053303;28;20199;-78
2020/12/18 04:20:01;;;;;;;24.20;22.40;;;;;;;;;;5056707;28;20192;-78
2020/12/18 04:22:29;;;;;;;24.45;22.77;;;;;;;;;;5057050;28;20192;-78
2020/12/18 04:24:56;;;;;;;24.95;23.45;;;;;;;;;;5057200;28;20250;-78
2020/12/18 04:27:24;;;;;;;25.52;23.52;;;;;;;;;;5056937;28;20653;-78
2020/12/18 04:29:51;;;;;;;25.15;23.50;;;;;;;;;;5039199;28;20587;-78
2020/12/18 04:32:17;;;;;;;25.48;23.75;;;;;;;;;;5056522;28;20269;-78
2020/12/18 04:34:44;;;;;;;25.17;23.35;;;;;;;;;;5056606;28;20202;-78
2020/12/18 04:37:11;;;;;;;24.90;23.10;;;;;;;;;;5057749;28;20263;-78
2020/12/18 04:39:38;;;;;;;25.50;23.80;;;;;;;;;;5056707;28;20228;-78
2020/12/18 04:42:05;;;;;;;24.57;22.97;;;;;;;;;;5056396;28;20611;-78
2020/12/18 04:44:33;;;;;;;24.98;23.17;;;;;;;;;;5056684;28;20481;-78
2020/12/18 04:47:00;;;;;;;25.00;23.25;;;;;;;;;;5057442;28;20210;-78
2020/12/18 04:49:29;;;;;;;25.88;23.70;;;;;;;;;;5039027;28;20191;-78
2020/12/18 04:51:57;;;;;;;25.38;23.63;;;;;;;;;;5056748;28;20195;-78
2020/12/18 04:54:26;;;;;;;24.58;22.77;;;;;;;;;;5056591;28;20199;-78
2020/12/18 04:56:55;;;;;;;25.65;23.75;;;;;;;;;;5038753;28;20191;-78
2020/12/18 04:59:23;;;;;;;26.65;24.60;;;;;;;;;;5056202;28;20238;-78
2020/12/18 05:01:53;;;;;;;25.05;23.35;;;;;;;;;;5056006;28;20254;-78
2020/12/18 05:04:20;;;;;;;26.15;24.15;;;;;;;;;;5056111;28;20269;-78
2020/12/18 05:06:47;;;;;;;25.73;24.00;;;;;;;;;;5056105;28;20190;-78
2020/12/18 05:09:14;;;;;;;26.10;24.13;;;;;;;;;;5055957;28;20196;-78
2020/12/18 05:11:41;;;;;;;25.58;23.70;;;;;;;;;;5055810;28;20190;-78
2020/12/18 05:14:08;;;;;;;26.40;24.50;;;;;;;;;;5055942;28;20198;-78
2020/12/18 05:16:35;;;;;;;28.95;27.05;;;;;;;;;;5056217;28;20698;-78
2020/12/18 05:19:06;;;;;;;26.90;24.77;;;;;;;;;;5055933;28;20208;-78
2020/12/18 05:21:35;;;;;;;27.63;25.73;;;;;;;;;;5055845;28;20620;-78
2020/12/18 05:24:01;;;;;;;27.00;25.30;;;;;;;;;;5056026;28;20191;-78
2020/12/18 05:26:29;;;;;;;26.30;24.52;;;;;;;;;;5056000;28;20201;-79
2020/12/18 05:29:02;;;;;;;25.88;24.13;;;;;;;;;;5055967;28;20190;-77
2020/12/18 05:31:30;;;;;;;26.88;24.58;;;;;;;;;;5054846;28;20210;-78
2020/12/18 05:33:57;;;;;;;26.55;24.65;;;;;;;;;;5055903;28;20191;-78
2020/12/18 05:36:26;;;;;;;26.75;25.05;;;;;;;;;;5055660;28;20254;-78
2020/12/18 05:38:53;;;;;;;30.23;28.23;;;;;;;;;;5055481;28;20606;-78
2020/12/18 05:41:22;;;;;;;28.88;26.73;;;;;;;;;;5055631;28;20222;-78
2020/12/18 05:43:49;;;;;;;27.83;25.70;;;;;;;;;;5055182;28;20320;-78
2020/12/18 05:46:20;;;;;;;27.38;25.27;;;;;;;;;;5055268;28;20190;-78
2020/12/18 05:48:54;;;;;;;27.58;25.73;;;;;;;;;;5055570;28;20190;-78
2020/12/18 05:51:28;;;;;;;26.83;24.80;;;;;;;;;;5055481;28;20186;-78
2020/12/18 05:54:07;;;;;;;25.88;23.65;;;;;;;;;;5055141;28;20190;-78
2020/12/18 05:56:34;;;;;;;25.85;23.90;;;;;;;;;;5055528;28;20218;-78
2020/12/18 05:59:06;;;;;;;25.88;23.75;;;;;;;;;;5055278;28;20194;-78
2020/12/18 06:01:33;;;;;;;27.33;24.95;;;;;;;;;;5054924;28;20218;-79
2020/12/18 06:04:03;;;;;;;26.38;24.27;;;;;;;;;;5055319;28;20202;-78
2020/12/18 06:06:31;;;;;;;25.80;24.08;;;;;;;;;;5055257;28;20189;-78
2020/12/18 06:08:59;;;;;;;25.98;24.10;;;;;;;;;;5055269;28;20197;-78
2020/12/18 06:11:29;;;;;;;26.80;24.40;;;;;;;;;;5055145;28;20245;-79
2020/12/18 06:14:00;;;;;;;25.60;23.38;;;;;;;;;;5054872;28;20189;-79
2020/12/18 06:16:27;;;;;;;26.60;24.80;;;;;;;;;;5054971;28;20225;-78
2020/12/18 06:18:55;;;;;;;26.05;24.05;;;;;;;;;;5054881;28;20228;-78
2020/12/18 06:21:22;;;;;;;26.42;24.50;;;;;;;;;;5054578;28;20225;-78
2020/12/18 06:23:54;;;;;;;26.63;24.88;;;;;;;;;;5055021;28;20186;-79
2020/12/18 06:26:21;;;;;;;25.75;23.95;;;;;;;;;;5054621;28;20232;-78
2020/12/18 06:28:48;;;;;;;26.02;23.92;;;;;;;;;;5054653;28;20223;-79
2020/12/18 06:31:22;;;;;;;25.75;23.58;;;;;;;;;;5054360;28;20200;-78
2020/12/18 06:33:56;;;;;;;25.75;23.98;;;;;;;;;;5054374;28;20190;-78
2020/12/18 06:36:37;;;;;;;26.00;23.80;;;;;;;;;;5037173;28;20196;-79
2020/12/18 06:39:19;;;;;;;26.15;24.45;;;;;;;;;;5053669;28;20208;-79
2020/12/18 06:41:46;;;;;;;25.52;23.83;;;;;;;;;;5054418;28;20213;-78
2020/12/18 06:44:32;;;;;;;25.77;23.75;;;;;;;;;;5054155;28;20226;-79
2020/12/18 06:47:08;;;;;;;25.63;23.90;;;;;;;;;;5036566;28;20262;-79
2020/12/18 06:50:02;;;;;;;26.38;24.38;;;;;;;;;;5054386;28;20189;-79
2020/12/18 06:52:39;;;;;;;27.23;25.10;;;;;;;;;;4973487;28;20295;-79
2020/12/18 06:55:08;;;;;;;26.88;25.08;;;;;;;;;;4973384;28;20250;-78
2020/12/18 06:57:35;;;;;;;26.65;24.75;;;;;;;;;;4973360;28;20195;-78
2020/12/18 07:00:25;;;;;;;27.10;24.98;;;;;;;;;;4973476;28;20219;-78
2020/12/18 07:02:52;;;;;;;25.52;23.67;;;;;;;;;;4968182;28;20239;-79
2020/12/18 07:05:32;;;;;;;26.90;24.90;;;;;;;;;;4973284;28;20189;-79
2020/12/18 07:08:00;;;;;;;27.77;25.77;;;;;;;;;;4973402;28;20219;-79
2020/12/18 07:10:28;;;;;;;27.42;25.20;;;;;;;;;;4973154;28;20247;-77
2020/12/18 07:12:57;;;;;;;27.40;25.48;;;;;;;;;;4973111;28;20254;-78
2020/12/18 07:15:24;;;;;;;26.80;24.70;;;;;;;;;;4973096;28;20232;-78
2020/12/18 07:17:52;;;;;;;27.00;25.10;;;;;;;;;;4973355;28;20616;-78
2020/12/18 07:20:19;;;;;;;26.63;24.73;;;;;;;;;;4972822;28;20199;-78
2020/12/18 07:22:45;;;;;;;29.13;26.70;;;;;;;;;;4973146;28;20199;-78
2020/12/18 07:25:12;;;;;;;26.92;24.92;;;;;;;;;;4972822;28;20204;-78
2020/12/18 07:27:40;;;;;;;27.73;25.73;;;;;;;;;;4997512;28;20200;-78
2020/12/18 07:30:11;;;;;;;28.33;25.90;;;;;;;;;;5053644;28;20223;-77
2020/12/18 07:32:38;;;;;;;28.20;25.95;;;;;;;;;;5053574;28;20209;-77
2020/12/18 07:35:05;;;;;;;29.33;26.67;;;;;;;;;;5053574;28;20644;-77
2020/12/18 07:37:33;;;;;;;27.73;25.48;;;;;;;;;;5053328;28;20546;-78
2020/12/18 07:40:00;;;;;;;27.85;25.60;;;;;;;;;;5053266;28;20208;-79
2020/12/18 07:42:27;;;;;;;28.33;26.23;;;;;;;;;;5053256;28;20225;-79
2020/12/18 07:45:08;;;;;;;26.83;25.10;;;;;;;;;;5053563;28;20224;-79
2020/12/18 07:47:35;;;;;;;27.15;25.30;;;;;;;;;;5036124;28;20193;-79
2020/12/18 07:50:04;;;;;;;27.83;25.75;;;;;;;;;;5053253;28;20639;-79
2020/12/18 07:52:31;;;;;;;30.63;27.88;;;;;;;;;;5053774;28;20292;-79
2020/12/18 07:54:58;;;;;;;31.15;28.58;;;;;;;;;;5057214;28;20189;-79
2020/12/18 07:57:25;;;;;;;28.27;26.38;;;;;;;;;;5057262;28;20588;-79
2020/12/18 07:59:52;;;;;;;28.73;26.45;;;;;;;;;;5057096;28;20239;-79
2020/12/18 08:02:24;;;;;;;27.88;25.60;;;;;;;;;;5057122;28;20240;-80
2020/12/18 08:05:00;;;;;;;28.00;25.80;;;;;;;;;;5057686;28;20208;-80
2020/12/18 08:07:28;;;;;;;28.00;26.00;;;;;;;;;;5057186;28;20556;-79
2020/12/18 08:10:00;;;;;;;27.52;25.65;;;;;;;;;;5057409;28;20243;-80
2020/12/18 08:12:29;;;;;;;28.17;25.80;;;;;;;;;;5057524;28;20193;-79
2020/12/18 08:15:11;;;;;;;27.20;25.20;;;;;;;;;;5057374;28;20220;-80
2020/12/18 08:17:39;;;;;;;27.08;25.10;;;;;;;;;;5057364;28;20561;-79
2020/12/18 08:20:06;;;;;;;25.80;24.05;;;;;;;;;;5057467;28;20194;-80
2020/12/18 08:22:36;;;;;;;26.38;24.70;;;;;;;;;;5056813;28;20217;-80
2020/12/18 08:25:04;;;;;;;26.60;24.50;;;;;;;;;;5057164;28;20532;-79
2020/12/18 08:27:32;;;;;;;25.65;23.95;;;;;;;;;;5057073;28;20292;-79
2020/12/18 08:29:59;;;;;;;26.33;24.10;;;;;;;;;;5056730;28;20563;-80
2020/12/18 08:32:27;;;;;;;25.23;23.52;;;;;;;;;;5056420;28;20193;-79
2020/12/18 08:35:00;;;;;;;24.50;22.75;;;;;;;;;;5056976;28;20193;-79
2020/12/18 08:37:26;;;;;;;24.98;23.08;;;;;;;;;;5056882;28;20195;-80
2020/12/18 08:39:53;;;;;;;25.17;23.48;;;;;;;;;;5038986;28;20259;-79
2020/12/18 08:42:20;;;;;;;24.88;23.30;;;;;;;;;;5056659;28;20607;-80
2020/12/18 08:44:48;;;;;;;24.88;23.17;;;;;;;;;;5056616;28;20580;-79
2020/12/18 08:47:18;;;;;;;25.42;23.63;;;;;;;;;;5056294;28;20631;-79
2020/12/18 08:49:45;;;;;;;25.00;23.17;;;;;;;;;;5056702;28;20191;-79
2020/12/18 08:52:13;;;;;;;25.85;23.95;;;;;;;;;;5056513;28;20236;-79
2020/12/18 08:54:40;;;;;;;24.38;22.77;;;;;;;;;;5057224;28;20280;-78
2020/12/18 08:57:11;;;;;;;24.02;22.63;;;;;;;;;;5056303;28;20201;-78
2020/12/18 08:59:38;;;;;;;25.00;23.20;;;;;;;;;;5056574;28;20186;-78
2020/12/18 09:02:04;;;;;;;24.63;22.83;;;;;;;;;;5055835;28;20248;-79
2020/12/18 09:04:31;;;;;;;23.98;22.15;;;;;;;;;;5055403;28;20186;-79
2020/12/18 09:06:58;;;;;;;23.95;22.23;;;;;;;;;;5055910;28;20197;-79
2020/12/18 09:09:26;;;;;;;23.38;21.80;;;;;;;;;;5056399;28;20283;-78
2020/12/18 09:11:53;;;;;;;23.80;22.25;;;;;;;;;;5055796;28;20709;-78
2020/12/18 09:14:27;;;;;;;23.20;21.60;;;;;;;;;;5056241;28;20294;-79
2020/12/18 09:16:57;;;;;;;23.88;21.88;;;;;;;;;;5056170;28;20184;-79
2020/12/18 09:19:24;;;;;;;23.77;21.77;;;;;;;;;;5038425;28;20221;-79
2020/12/18 09:21:50;;;;;;;24.02;22.52;;;;;;;;;;5055740;28;20743;-79
2020/12/18 09:24:19;;;;;;;23.80;22.02;;;;;;;;;;5056214;28;20197;-79
2020/12/18 09:26:47;;;;;;;24.35;22.30;;;;;;;;;;5055972;28;20663;-79
2020/12/18 09:29:17;;;;;;;23.35;21.95;;;;;;;;;;5055545;28;20192;-78
2020/12/18 09:31:44;;;;;;;23.40;21.90;;;;;;;;;;5055036;28;20234;-79
2020/12/18 09:34:14;;;;;;;24.60;22.45;;;;;;;;;;5055438;28;20202;-79
2020/12/18 09:36:42;;;;;;;24.13;21.88;;;;;;;;;;5055853;28;20544;-84
2020/12/18 09:39:09;;;;;;;22.92;21.40;;;;;;;;;;5055985;28;20187;-80
2020/12/18 09:41:36;;;;;;;24.40;22.45;;;;;;;;;;5055663;28;20213;-80
2020/12/18 09:44:04;;;;;;;22.55;21.05;;;;;;;;;;5055587;28;20249;-80
2020/12/18 09:46:30;;;;;;;23.10;21.60;;;;;;;;;;5055618;28;20194;-79
2020/12/18 09:48:57;;;;;;;23.75;21.85;;;;;;;;;;5055342;28;20194;-80
2020/12/18 09:51:25;;;;;;;23.27;21.58;;;;;;;;;;5055483;28;20198;-80
2020/12/18 09:53:51;;;;;;;23.50;21.70;;;;;;;;;;5055381;28;20237;-78
2020/12/18 09:56:18;;;;;;;23.40;21.80;;;;;;;;;;5055437;28;20208;-79
2020/12/18 09:58:45;;;;;;;22.85;21.25;;;;;;;;;;5055242;28;20188;-79
2020/12/18 10:01:16;;;;;;;22.83;21.05;;;;;;;;;;5054885;28;20227;-79
2020/12/18 10:03:43;;;;;;;22.90;21.13;;;;;;;;;;5051771;28;20237;-77
2020/12/18 10:06:10;;;;;;;23.83;21.88;;;;;;;;;;5054867;28;20199;-78
2020/12/18 10:08:37;;;;;;;23.85;22.08;;;;;;;;;;5055231;28;20190;-77
2020/12/18 10:11:04;;;;;;;22.95;21.50;;;;;;;;;;5055694;28;20228;-78
2020/12/18 10:13:30;;;;;;;22.58;21.23;;;;;;;;;;5054882;28;20636;-80
2020/12/18 10:15:57;;;;;;;24.45;22.67;;;;;;;;;;5054528;28;20208;-80
2020/12/18 10:18:25;;;;;;;23.92;22.23;;;;;;;;;;5055128;28;20188;-80
2020/12/18 10:20:52;;;;;;;24.27;22.77;;;;;;;;;;5054948;28;20238;-80
2020/12/18 10:23:19;;;;;;;22.23;20.83;;;;;;;;;;5054724;28;20586;-80
2020/12/18 10:25:46;;;;;;;23.05;21.45;;;;;;;;;;5054709;28;20222;-79
2020/12/18 10:28:13;;;;;;;23.40;21.58;;;;;;;;;;5055276;28;20206;-78
2020/12/18 10:30:42;;;;;;;23.52;21.95;;;;;;;;;;5054371;28;20642;-85
2020/12/18 10:33:09;;;;;;;23.42;21.92;;;;;;;;;;5053231;28;20197;-83
2020/12/18 10:35:37;;;;;;;24.25;22.63;;;;;;;;;;5054819;28;20192;-83
2020/12/18 10:38:04;;;;;;;24.85;22.85;;;;;;;;;;5055470;28;20279;-85
2020/12/18 10:40:33;;;;;;;23.38;21.67;;;;;;;;;;5054978;28;20247;-84
2020/12/18 10:42:59;;;;;;;24.02;21.90;;;;;;;;;;5050852;28;20678;-85
2020/12/18 10:45:26;;;;;;;22.95;21.25;;;;;;;;;;5051930;28;20186;-81
2020/12/18 10:47:53;;;;;;;23.40;21.80;;;;;;;;;;5053445;28;20191;-80
2020/12/18 10:50:20;;;;;;;24.90;23.00;;;;;;;;;;5053617;28;20256;-81
2020/12/18 10:52:48;;;;;;;23.90;22.40;;;;;;;;;;5054319;28;20211;-88
2020/12/18 10:55:15;;;;;;;23.33;21.70;;;;;;;;;;5055070;28;20546;-82
2020/12/18 10:57:41;;;;;;;22.13;20.73;;;;;;;;;;5054299;28;20191;-78
2020/12/18 11:00:08;;;;;;;23.35;21.63;;;;;;;;;;5053772;28;20192;-78
2020/12/18 11:02:35;;;;;;;22.92;21.25;;;;;;;;;;5062511;28;20238;-78
2020/12/18 11:05:02;;;;;;;24.45;22.33;;;;;;;;;;5074056;28;20210;-86
2020/12/18 11:07:29;;;;;;;22.95;21.55;;;;;;;;;;5074463;28;20561;-83
2020/12/18 11:09:57;;;;;;;24.48;22.95;;;;;;;;;;5073798;28;20214;-82
2020/12/18 11:12:32;;;;;;;23.70;21.77;;;;;;;;;;5074316;28;20192;-81
2020/12/18 11:14:59;;;;;;;23.70;22.10;;;;;;;;;;5074026;28;20198;-82
2020/12/18 11:17:27;;;;;;;23.87;22.47;;;;;;;;;;5074392;28;20202;-78
2020/12/18 11:19:54;;;;;;;23.85;22.25;;;;;;;;;;5076774;28;20448;-81
2020/12/18 11:22:21;;;;;;;23.42;22.00;;;;;;;;;;5060547;28;20257;-81
2020/12/18 11:24:48;;;;;;;22.75;21.15;;;;;;;;;;5078711;28;20191;-78
2020/12/18 11:27:16;;;;;;;22.13;20.73;;;;;;;;;;5076869;28;20193;-80
2020/12/18 11:29:43;;;;;;;23.23;21.60;;;;;;;;;;5056246;28;20465;-80
2020/12/18 11:32:10;;;;;;;22.05;20.65;;;;;;;;;;5074081;28;20192;-80
2020/12/18 11:34:37;;;;;;;23.02;21.52;;;;;;;;;;5074265;28;20284;-81
2020/12/18 11:37:04;;;;;;;22.95;21.60;;;;;;;;;;5074996;28;20199;-81
2020/12/18 11:39:31;;;;;;;22.15;20.63;;;;;;;;;;5078886;28;20190;-82
2020/12/18 11:41:58;;;;;;;22.00;20.55;;;;;;;;;;5078338;28;20218;-81
2020/12/18 11:44:26;;;;;;;22.67;21.07;;;;;;;;;;5079033;28;20228;-80
2020/12/18 11:46:52;;;;;;;22.47;20.97;;;;;;;;;;5077429;28;20473;-81
2020/12/18 11:49:19;;;;;;;21.53;20.23;;;;;;;;;;5076662;28;20953;-79
2020/12/18 11:51:46;;;;;;;23.90;22.07;;;;;;;;;;5073825;28;20415;-78
2020/12/18 11:54:13;;;;;;;22.07;20.63;;;;;;;;;;5074022;28;20414;-78
2020/12/18 11:56:40;;;;;;;21.73;20.33;;;;;;;;;;5055930;28;20441;-79
2020/12/18 11:59:08;;;;;;;23.33;21.60;;;;;;;;;;5073345;28;20481;-79
2020/12/18 12:01:38;;;;;;;21.20;19.90;;;;;;;;;;5073289;28;20550;-80
2020/12/18 12:04:05;;;;;;;22.70;21.10;;;;;;;;;;5073620;28;20791;-79
2020/12/18 12:06:32;;;;;;;22.52;20.98;;;;;;;;;;5073191;28;20471;-79
2020/12/18 12:09:03;;;;;;;23.13;21.43;;;;;;;;;;5073291;28;20551;-79
2020/12/18 12:11:36;;;;;;;23.45;21.00;;;;;;;;;;5073486;28;20524;-79
2020/12/18 12:14:03;;;;;;;22.30;21.00;;;;;;;;;;5073270;28;20190;-78
2020/12/18 12:16:32;;;;;;;22.60;21.23;;;;;;;;;;5072992;28;20929;-82
2020/12/18 12:19:00;;;;;;;22.63;21.20;;;;;;;;;;5073172;28;20533;-78
2020/12/18 12:21:32;;;;;;;22.23;20.83;;;;;;;;;;5054885;28;20467;-78
2020/12/18 12:23:59;;;;;;;23.20;21.70;;;;;;;;;;5073285;28;20195;-78
2020/12/18 12:26:26;;;;;;;21.67;20.38;;;;;;;;;;5072919;28;20811;-79
2020/12/18 12:28:53;;;;;;;22.57;21.17;;;;;;;;;;5073271;28;20195;-78
2020/12/18 12:31:20;;;;;;;22.88;21.40;;;;;;;;;;5072991;28;20457;-79
2020/12/18 12:33:47;;;;;;;22.13;20.83;;;;;;;;;;5073309;28;20201;-79
2020/12/18 12:36:19;;;;;;;22.55;21.15;;;;;;;;;;5072869;28;20206;-79
2020/12/18 12:38:45;;;;;;;22.30;20.90;;;;;;;;;;5073388;28;20273;-79
2020/12/18 12:41:13;;;;;;;22.00;20.60;;;;;;;;;;5076847;28;20458;-79
2020/12/18 12:43:39;;;;;;;22.75;21.35;;;;;;;;;;5076472;28;20473;-79
2020/12/18 12:46:06;;;;;;;22.80;21.40;;;;;;;;;;5076843;28;20190;-79
2020/12/18 12:48:33;;;;;;;23.90;22.23;;;;;;;;;;5076576;28;20437;-78
2020/12/18 12:51:00;;;;;;;22.73;21.23;;;;;;;;;;5076716;28;20252;-79
2020/12/18 12:53:28;;;;;;;22.00;20.50;;;;;;;;;;5059452;28;20495;-79
2020/12/18 12:55:55;;;;;;;23.20;21.60;;;;;;;;;;5058836;28;20524;-81
2020/12/18 12:58:22;;;;;;;22.50;21.20;;;;;;;;;;5076627;28;20445;-79
2020/12/18 13:00:48;;;;;;;23.03;21.10;;;;;;;;;;5076222;28;20495;-79
2020/12/18 13:03:15;;;;;;;22.77;21.20;;;;;;;;;;5076011;28;20878;-80
2020/12/18 13:05:44;;;;;;;22.77;21.07;;;;;;;;;;5076432;28;20449;-79
2020/12/18 13:08:11;;;;;;;21.73;20.23;;;;;;;;;;5058637;28;20799;-79
2020/12/18 13:10:39;;;;;;;22.83;21.33;;;;;;;;;;5076324;28;20499;-78
2020/12/18 13:13:06;;;;;;;22.57;21.07;;;;;;;;;;5075829;28;20964;-78
2020/12/18 13:15:33;;;;;;;22.50;20.90;;;;;;;;;;5076679;28;20528;-78
2020/12/18 13:18:00;;;;;;;22.10;20.70;;;;;;;;;;5076033;28;20457;-78
2020/12/18 13:20:27;;;;;;;22.90;21.40;;;;;;;;;;5076089;28;20421;-78
2020/12/18 13:22:54;;;;;;;22.37;20.70;;;;;;;;;;5078170;28;20481;-78
2020/12/18 13:25:24;;;;;;;21.85;20.30;;;;;;;;;;5059156;28;20437;-82
2020/12/18 13:27:51;;;;;;;22.50;21.00;;;;;;;;;;5059650;28;20203;-91
2020/12/18 13:30:18;;;;;;;22.00;20.50;;;;;;;;;;5077723;28;20795;-85
2020/12/18 13:32:45;;;;;;;21.87;20.57;;;;;;;;;;5058590;28;20432;-82
2020/12/18 13:35:13;;;;;;;21.73;20.33;;;;;;;;;;5075952;28;20467;-81
2020/12/18 13:37:40;;;;;;;21.97;20.10;;;;;;;;;;5058333;28;20485;-79
2020/12/18 13:40:07;;;;;;;21.97;20.70;;;;;;;;;;5057755;28;20445;-78
2020/12/18 13:42:35;;;;;;;23.20;21.50;;;;;;;;;;5075227;28;20500;-78
2020/12/18 13:45:03;;;;;;;22.67;21.27;;;;;;;;;;5076122;28;20503;-89
2020/12/18 13:47:30;;;;;;;22.80;21.30;;;;;;;;;;5075557;28;20408;-79
2020/12/18 13:49:56;;;;;;;22.60;21.10;;;;;;;;;;5076667;28;20453;-96
2020/12/18 13:52:23;;;;;;;22.67;21.07;;;;;;;;;;5081054;28;20804;-95
2020/12/18 13:54:50;;;;;;;23.17;21.57;;;;;;;;;;5075946;28;20437;-91
2020/12/18 13:57:18;;;;;;;24.33;22.27;;;;;;;;;;5058463;28;20484;-79
2020/12/18 13:59:44;;;;;;;22.13;20.63;;;;;;;;;;5075713;28;20442;-82
2020/12/18 14:02:12;;;;;;;22.77;21.10;;;;;;;;;;5075516;28;20479;-82
2020/12/18 14:04:39;;;;;;;22.00;20.50;;;;;;;;;;5075582;28;20442;-85
2020/12/18 14:07:06;;;;;;;23.57;21.87;;;;;;;;;;5058582;28;20420;-84
2020/12/18 14:09:34;;;;;;;22.73;21.23;;;;;;;;;;5058415;28;20930;-87
2020/12/18 14:12:01;;;;;;;23.10;21.60;;;;;;;;;;5076238;28;20511;-87
2020/12/18 14:14:28;;;;;;;22.53;21.00;;;;;;;;;;5076082;28;20412;-88
2020/12/18 14:16:55;;;;;;;23.05;21.65;;;;;;;;;;5076411;28;20416;-87
2020/12/18 14:19:22;;;;;;;23.13;21.45;;;;;;;;;;5075617;28;20567;-80
2020/12/18 14:21:51;;;;;;;23.60;21.83;;;;;;;;;;5075347;28;20694;-94